sensor_id;sensor_type;location;lat;lon;timestamp;temperature;humidity
28763;DHT22;15918;51.270;6.522;2024-03-22T00:00:31;15.00;66.90
28763;DHT22;15918;51.270;6.522;2024-03-22T00:02:56;15.00;67.20
28763;DHT22;15918;51.270;6.522;2024-03-22T00:05:22;15.00;67.30
28763;DHT22;15918;51.270;6.522;2024-03-22T00:07:48;14.90;67.20
28763;DHT22;15918;51.270;6.522;2024-03-22T00:10:14;15.00;67.30
28763;DHT22;15918;51.270;6.522;2024-03-22T00:12:40;15.00;67.50
28763;DHT22;15918;51.270;6.522;2024-03-22T00:15:06;14.90;67.40
28763;DHT22;15918;51.270;6.522;2024-03-22T00:17:31;15.00;67.50
28763;DHT22;15918;51.270;6.522;2024-03-22T00:19:59;15.00;67.40
28763;DHT22;15918;51.270;6.522;2024-03-22T00:22:25;15.00;67.40
28763;DHT22;15918;51.270;6.522;2024-03-22T00:24:51;15.00;67.10
28763;DHT22;15918;51.270;6.522;2024-03-22T00:27:16;14.90;66.90
28763;DHT22;15918;51.270;6.522;2024-03-22T00:29:42;14.90;68.10
28763;DHT22;15918;51.270;6.522;2024-03-22T00:32:07;14.90;67.30
28763;DHT22;15918;51.270;6.522;2024-03-22T00:34:34;15.00;67.40
28763;DHT22;15918;51.270;6.522;2024-03-22T00:37:00;15.00;67.60
28763;DHT22;15918;51.270;6.522;2024-03-22T00:39:25;15.00;67.30
28763;DHT22;15918;51.270;6.522;2024-03-22T00:41:51;14.90;67.10
28763;DHT22;15918;51.270;6.522;2024-03-22T00:44:16;15.00;67.20
28763;DHT22;15918;51.270;6.522;2024-03-22T00:46:42;15.00;67.40
28763;DHT22;15918;51.270;6.522;2024-03-22T00:49:07;14.90;67.30
28763;DHT22;15918;51.270;6.522;2024-03-22T00:51:33;14.90;67.60
28763;DHT22;15918;51.270;6.522;2024-03-22T00:53:58;15.00;67.80
28763;DHT22;15918;51.270;6.522;2024-03-22T00:56:24;14.90;67.30
28763;DHT22;15918;51.270;6.522;2024-03-22T00:58:49;14.90;67.20
28763;DHT22;15918;51.270;6.522;2024-03-22T01:01:15;15.00;67.60
28763;DHT22;15918;51.270;6.522;2024-03-22T01:03:41;14.90;67.70
28763;DHT22;15918;51.270;6.522;2024-03-22T01:06:06;15.00;67.90
28763;DHT22;15918;51.270;6.522;2024-03-22T01:08:32;14.90;67.90
28763;DHT22;15918;51.270;6.522;2024-03-22T01:10:58;14.90;67.30
28763;DHT22;15918;51.270;6.522;2024-03-22T01:13:23;14.90;67.70
28763;DHT22;15918;51.270;6.522;2024-03-22T01:15:49;15.00;67.90
28763;DHT22;15918;51.270;6.522;2024-03-22T01:18:15;14.90;67.90
28763;DHT22;15918;51.270;6.522;2024-03-22T01:20:40;15.00;68.00
28763;DHT22;15918;51.270;6.522;2024-03-22T01:23:07;14.90;67.90
28763;DHT22;15918;51.270;6.522;2024-03-22T01:25:33;14.90;67.40
28763;DHT22;15918;51.270;6.522;2024-03-22T01:27:59;14.90;67.60
28763;DHT22;15918;51.270;6.522;2024-03-22T01:30:24;14.90;67.40
28763;DHT22;15918;51.270;6.522;2024-03-22T01:32:54;14.90;67.50
28763;DHT22;15918;51.270;6.522;2024-03-22T01:35:20;14.90;67.40
28763;DHT22;15918;51.270;6.522;2024-03-22T01:37:45;14.90;67.80
28763;DHT22;15918;51.270;6.522;2024-03-22T01:40:11;14.90;67.90
28763;DHT22;15918;51.270;6.522;2024-03-22T01:42:38;14.90;67.50
28763;DHT22;15918;51.270;6.522;2024-03-22T01:45:04;15.00;67.40
28763;DHT22;15918;51.270;6.522;2024-03-22T01:47:29;14.90;67.40
28763;DHT22;15918;51.270;6.522;2024-03-22T01:49:55;14.90;67.50
28763;DHT22;15918;51.270;6.522;2024-03-22T01:52:21;14.90;67.90
28763;DHT22;15918;51.270;6.522;2024-03-22T01:54:47;15.00;67.80
28763;DHT22;15918;51.270;6.522;2024-03-22T01:57:13;14.90;67.40
28763;DHT22;15918;51.270;6.522;2024-03-22T01:59:39;14.90;67.90
28763;DHT22;15918;51.270;6.522;2024-03-22T02:02:05;14.90;67.50
28763;DHT22;15918;51.270;6.522;2024-03-22T02:04:30;14.90;67.60
28763;DHT22;15918;51.270;6.522;2024-03-22T02:06:56;14.90;67.90
28763;DHT22;15918;51.270;6.522;2024-03-22T02:09:22;14.90;67.80
28763;DHT22;15918;51.270;6.522;2024-03-22T02:11:47;14.90;68.20
28763;DHT22;15918;51.270;6.522;2024-03-22T02:14:13;14.90;68.30
28763;DHT22;15918;51.270;6.522;2024-03-22T02:16:42;14.90;68.20
28763;DHT22;15918;51.270;6.522;2024-03-22T02:19:08;14.90;67.70
28763;DHT22;15918;51.270;6.522;2024-03-22T02:21:34;14.90;68.10
28763;DHT22;15918;51.270;6.522;2024-03-22T02:24:00;14.90;68.40
28763;DHT22;15918;51.270;6.522;2024-03-22T02:26:25;14.90;68.20
28763;DHT22;15918;51.270;6.522;2024-03-22T02:28:51;14.90;67.70
28763;DHT22;15918;51.270;6.522;2024-03-22T02:31:17;14.90;67.90
28763;DHT22;15918;51.270;6.522;2024-03-22T02:33:42;14.90;68.20
28763;DHT22;15918;51.270;6.522;2024-03-22T02:36:09;14.90;68.20
28763;DHT22;15918;51.270;6.522;2024-03-22T02:38:34;14.90;68.00
28763;DHT22;15918;51.270;6.522;2024-03-22T02:41:00;14.90;68.30
28763;DHT22;15918;51.270;6.522;2024-03-22T02:43:26;14.90;68.50
28763;DHT22;15918;51.270;6.522;2024-03-22T02:45:51;14.90;68.70
28763;DHT22;15918;51.270;6.522;2024-03-22T02:48:17;14.90;68.80
28763;DHT22;15918;51.270;6.522;2024-03-22T02:50:42;14.90;68.80
28763;DHT22;15918;51.270;6.522;2024-03-22T02:53:08;14.90;68.80
28763;DHT22;15918;51.270;6.522;2024-03-22T02:55:38;14.90;68.90
28763;DHT22;15918;51.270;6.522;2024-03-22T02:58:04;14.90;68.80
28763;DHT22;15918;51.270;6.522;2024-03-22T03:00:31;14.90;68.50
28763;DHT22;15918;51.270;6.522;2024-03-22T03:02:56;14.90;68.20
28763;DHT22;15918;51.270;6.522;2024-03-22T03:05:22;14.90;68.60
28763;DHT22;15918;51.270;6.522;2024-03-22T03:07:50;14.90;68.80
28763;DHT22;15918;51.270;6.522;2024-03-22T03:10:16;14.90;68.90
28763;DHT22;15918;51.270;6.522;2024-03-22T03:12:42;14.90;68.90
28763;DHT22;15918;51.270;6.522;2024-03-22T03:15:07;14.90;69.00
28763;DHT22;15918;51.270;6.522;2024-03-22T03:17:33;14.80;69.00
28763;DHT22;15918;51.270;6.522;2024-03-22T03:19:59;14.90;68.90
28763;DHT22;15918;51.270;6.522;2024-03-22T03:22:24;14.80;68.90
28763;DHT22;15918;51.270;6.522;2024-03-22T03:24:50;14.80;68.80
28763;DHT22;15918;51.270;6.522;2024-03-22T03:27:16;14.80;69.20
28763;DHT22;15918;51.270;6.522;2024-03-22T03:29:41;14.80;69.00
28763;DHT22;15918;51.270;6.522;2024-03-22T03:32:07;14.80;69.30
28763;DHT22;15918;51.270;6.522;2024-03-22T03:34:33;14.80;69.50
28763;DHT22;15918;51.270;6.522;2024-03-22T03:36:58;14.80;69.10
28763;DHT22;15918;51.270;6.522;2024-03-22T03:39:27;14.80;69.30
28763;DHT22;15918;51.270;6.522;2024-03-22T03:41:52;14.80;69.50
28763;DHT22;15918;51.270;6.522;2024-03-22T03:44:18;14.80;69.50
28763;DHT22;15918;51.270;6.522;2024-03-22T03:46:43;14.80;69.10
28763;DHT22;15918;51.270;6.522;2024-03-22T03:49:09;14.80;69.30
28763;DHT22;15918;51.270;6.522;2024-03-22T03:51:35;14.80;69.50
28763;DHT22;15918;51.270;6.522;2024-03-22T03:54:01;14.80;69.20
28763;DHT22;15918;51.270;6.522;2024-03-22T03:56:26;14.80;69.20
28763;DHT22;15918;51.270;6.522;2024-03-22T03:58:52;14.70;69.30
28763;DHT22;15918;51.270;6.522;2024-03-22T04:01:19;14.80;69.40
28763;DHT22;15918;51.270;6.522;2024-03-22T04:03:45;14.70;69.20
28763;DHT22;15918;51.270;6.522;2024-03-22T04:06:10;14.70;69.30
28763;DHT22;15918;51.270;6.522;2024-03-22T04:08:36;14.70;69.20
28763;DHT22;15918;51.270;6.522;2024-03-22T04:11:01;14.70;69.20
28763;DHT22;15918;51.270;6.522;2024-03-22T04:13:28;14.70;69.40
28763;DHT22;15918;51.270;6.522;2024-03-22T04:15:54;14.70;69.40
28763;DHT22;15918;51.270;6.522;2024-03-22T04:18:20;14.70;69.50
28763;DHT22;15918;51.270;6.522;2024-03-22T04:20:55;14.70;69.40
28763;DHT22;15918;51.270;6.522;2024-03-22T04:23:21;14.80;69.30
28763;DHT22;15918;51.270;6.522;2024-03-22T04:25:57;14.70;69.30
28763;DHT22;15918;51.270;6.522;2024-03-22T04:28:27;14.70;69.10
28763;DHT22;15918;51.270;6.522;2024-03-22T04:31:07;14.70;69.20
28763;DHT22;15918;51.270;6.522;2024-03-22T04:33:37;14.70;69.00
28763;DHT22;15918;51.270;6.522;2024-03-22T04:36:03;14.70;69.40
28763;DHT22;15918;51.270;6.522;2024-03-22T04:38:29;14.70;69.50
28763;DHT22;15918;51.270;6.522;2024-03-22T04:40:56;14.70;69.40
28763;DHT22;15918;51.270;6.522;2024-03-22T04:43:23;14.70;69.50
28763;DHT22;15918;51.270;6.522;2024-03-22T04:45:49;14.70;69.40
28763;DHT22;15918;51.270;6.522;2024-03-22T04:48:20;14.70;69.40
28763;DHT22;15918;51.270;6.522;2024-03-22T04:50:46;14.70;69.30
28763;DHT22;15918;51.270;6.522;2024-03-22T04:53:13;14.70;69.40
28763;DHT22;15918;51.270;6.522;2024-03-22T04:55:39;14.70;69.50
28763;DHT22;15918;51.270;6.522;2024-03-22T04:58:16;14.70;69.50
28763;DHT22;15918;51.270;6.522;2024-03-22T05:00:42;14.70;69.50
28763;DHT22;15918;51.270;6.522;2024-03-22T05:03:08;14.70;69.40
28763;DHT22;15918;51.270;6.522;2024-03-22T05:05:35;14.70;69.40
28763;DHT22;15918;51.270;6.522;2024-03-22T05:08:01;14.70;69.40
28763;DHT22;15918;51.270;6.522;2024-03-22T05:10:27;14.70;69.40
28763;DHT22;15918;51.270;6.522;2024-03-22T05:12:57;14.70;69.40
28763;DHT22;15918;51.270;6.522;2024-03-22T05:15:23;14.70;69.30
28763;DHT22;15918;51.270;6.522;2024-03-22T05:17:51;14.70;69.30
28763;DHT22;15918;51.270;6.522;2024-03-22T05:20:17;14.60;69.20
28763;DHT22;15918;51.270;6.522;2024-03-22T05:22:42;14.70;69.30
28763;DHT22;15918;51.270;6.522;2024-03-22T05:25:08;14.60;69.10
28763;DHT22;15918;51.270;6.522;2024-03-22T05:27:34;14.70;69.10
28763;DHT22;15918;51.270;6.522;2024-03-22T05:30:00;14.70;69.20
28763;DHT22;15918;51.270;6.522;2024-03-22T05:32:26;14.70;69.30
28763;DHT22;15918;51.270;6.522;2024-03-22T05:34:52;14.70;69.30
28763;DHT22;15918;51.270;6.522;2024-03-22T05:37:18;14.70;69.30
28763;DHT22;15918;51.270;6.522;2024-03-22T05:39:43;14.70;69.20
28763;DHT22;15918;51.270;6.522;2024-03-22T05:42:09;14.70;69.20
28763;DHT22;15918;51.270;6.522;2024-03-22T05:44:35;14.60;69.20
28763;DHT22;15918;51.270;6.522;2024-03-22T05:47:01;14.70;69.30
28763;DHT22;15918;51.270;6.522;2024-03-22T05:49:26;14.70;69.20
28763;DHT22;15918;51.270;6.522;2024-03-22T05:51:52;14.60;69.20
28763;DHT22;15918;51.270;6.522;2024-03-22T05:54:18;14.70;69.30
28763;DHT22;15918;51.270;6.522;2024-03-22T05:56:44;14.70;69.20
28763;DHT22;15918;51.270;6.522;2024-03-22T05:59:09;14.70;69.30
28763;DHT22;15918;51.270;6.522;2024-03-22T06:01:36;14.70;69.30
28763;DHT22;15918;51.270;6.522;2024-03-22T06:04:01;14.70;69.20
28763;DHT22;15918;51.270;6.522;2024-03-22T06:06:27;14.70;69.20
28763;DHT22;15918;51.270;6.522;2024-03-22T06:08:53;14.70;69.20
28763;DHT22;15918;51.270;6.522;2024-03-22T06:11:20;14.70;69.20
28763;DHT22;15918;51.270;6.522;2024-03-22T06:13:47;14.70;69.30
28763;DHT22;15918;51.270;6.522;2024-03-22T06:16:13;14.70;69.30
28763;DHT22;15918;51.270;6.522;2024-03-22T06:18:39;14.70;69.30
28763;DHT22;15918;51.270;6.522;2024-03-22T06:21:05;14.70;69.30
28763;DHT22;15918;51.270;6.522;2024-03-22T06:23:31;14.70;69.30
28763;DHT22;15918;51.270;6.522;2024-03-22T06:25:57;14.70;69.30
28763;DHT22;15918;51.270;6.522;2024-03-22T06:28:23;14.70;69.30
28763;DHT22;15918;51.270;6.522;2024-03-22T06:30:49;14.70;69.30
28763;DHT22;15918;51.270;6.522;2024-03-22T06:33:15;14.70;69.30
28763;DHT22;15918;51.270;6.522;2024-03-22T06:35:44;14.70;69.30
28763;DHT22;15918;51.270;6.522;2024-03-22T06:38:09;14.70;69.20
28763;DHT22;15918;51.270;6.522;2024-03-22T06:40:35;14.70;69.30
28763;DHT22;15918;51.270;6.522;2024-03-22T06:43:01;14.70;69.30
28763;DHT22;15918;51.270;6.522;2024-03-22T06:45:26;14.70;69.30
28763;DHT22;15918;51.270;6.522;2024-03-22T06:47:52;14.70;69.30
28763;DHT22;15918;51.270;6.522;2024-03-22T06:50:17;14.70;69.40
28763;DHT22;15918;51.270;6.522;2024-03-22T06:52:43;14.70;69.30
28763;DHT22;15918;51.270;6.522;2024-03-22T06:55:09;14.70;69.30
28763;DHT22;15918;51.270;6.522;2024-03-22T06:57:37;14.70;69.30
28763;DHT22;15918;51.270;6.522;2024-03-22T07:00:02;14.70;69.50
28763;DHT22;15918;51.270;6.522;2024-03-22T07:02:28;14.80;69.40
28763;DHT22;15918;51.270;6.522;2024-03-22T07:04:54;14.80;69.40
28763;DHT22;15918;51.270;6.522;2024-03-22T07:07:20;14.80;69.40
28763;DHT22;15918;51.270;6.522;2024-03-22T07:09:45;14.80;69.50
28763;DHT22;15918;51.270;6.522;2024-03-22T07:12:13;14.80;69.50
28763;DHT22;15918;51.270;6.522;2024-03-22T07:14:38;14.80;69.50
28763;DHT22;15918;51.270;6.522;2024-03-22T07:17:04;14.80;69.60
28763;DHT22;15918;51.270;6.522;2024-03-22T07:19:30;14.80;69.60
28763;DHT22;15918;51.270;6.522;2024-03-22T07:21:56;14.90;69.70
28763;DHT22;15918;51.270;6.522;2024-03-22T07:24:23;14.80;69.60
28763;DHT22;15918;51.270;6.522;2024-03-22T07:26:49;14.90;69.70
28763;DHT22;15918;51.270;6.522;2024-03-22T07:29:15;14.90;69.70
28763;DHT22;15918;51.270;6.522;2024-03-22T07:31:41;14.90;69.70
28763;DHT22;15918;51.270;6.522;2024-03-22T07:34:06;14.90;69.70
28763;DHT22;15918;51.270;6.522;2024-03-22T07:36:36;14.90;69.70
28763;DHT22;15918;51.270;6.522;2024-03-22T07:39:02;14.90;69.70
28763;DHT22;15918;51.270;6.522;2024-03-22T07:41:28;15.00;70.40
28763;DHT22;15918;51.270;6.522;2024-03-22T07:43:54;15.00;69.70
28763;DHT22;15918;51.270;6.522;2024-03-22T07:46:20;15.00;69.60
28763;DHT22;15918;51.270;6.522;2024-03-22T07:48:45;15.00;69.60
28763;DHT22;15918;51.270;6.522;2024-03-22T07:51:11;15.00;69.60
28763;DHT22;15918;51.270;6.522;2024-03-22T07:53:37;15.00;69.60
28763;DHT22;15918;51.270;6.522;2024-03-22T07:56:02;15.00;69.50
28763;DHT22;15918;51.270;6.522;2024-03-22T07:58:28;15.00;69.40
28763;DHT22;15918;51.270;6.522;2024-03-22T08:00:54;15.10;69.50
28763;DHT22;15918;51.270;6.522;2024-03-22T08:03:19;15.10;69.50
28763;DHT22;15918;51.270;6.522;2024-03-22T08:05:45;15.10;69.30
28763;DHT22;15918;51.270;6.522;2024-03-22T08:08:11;15.10;69.20
28763;DHT22;15918;51.270;6.522;2024-03-22T08:10:36;15.10;69.20
28763;DHT22;15918;51.270;6.522;2024-03-22T08:13:02;15.20;69.20
28763;DHT22;15918;51.270;6.522;2024-03-22T08:15:27;15.10;69.10
28763;DHT22;15918;51.270;6.522;2024-03-22T08:17:53;15.10;69.10
28763;DHT22;15918;51.270;6.522;2024-03-22T08:20:19;15.20;69.00
28763;DHT22;15918;51.270;6.522;2024-03-22T08:22:44;15.20;69.00
28763;DHT22;15918;51.270;6.522;2024-03-22T08:25:10;15.20;68.90
28763;DHT22;15918;51.270;6.522;2024-03-22T08:27:35;15.20;68.80
28763;DHT22;15918;51.270;6.522;2024-03-22T08:30:01;15.20;68.80
28763;DHT22;15918;51.270;6.522;2024-03-22T08:32:27;15.20;68.80
28763;DHT22;15918;51.270;6.522;2024-03-22T08:34:52;15.20;68.80
28763;DHT22;15918;51.270;6.522;2024-03-22T08:37:18;15.20;68.70
28763;DHT22;15918;51.270;6.522;2024-03-22T08:39:43;15.20;68.60
28763;DHT22;15918;51.270;6.522;2024-03-22T08:42:09;15.30;68.70
28763;DHT22;15918;51.270;6.522;2024-03-22T08:44:35;15.20;68.60
28763;DHT22;15918;51.270;6.522;2024-03-22T08:47:01;15.30;68.70
28763;DHT22;15918;51.270;6.522;2024-03-22T08:49:26;15.30;68.60
28763;DHT22;15918;51.270;6.522;2024-03-22T08:51:52;15.30;68.50
28763;DHT22;15918;51.270;6.522;2024-03-22T08:54:18;15.30;68.40
28763;DHT22;15918;51.270;6.522;2024-03-22T08:56:43;15.40;68.50
28763;DHT22;15918;51.270;6.522;2024-03-22T08:59:09;15.40;68.50
28763;DHT22;15918;51.270;6.522;2024-03-22T09:01:35;15.40;68.40
28763;DHT22;15918;51.270;6.522;2024-03-22T09:04:01;15.40;68.50
28763;DHT22;15918;51.270;6.522;2024-03-22T09:06:27;15.40;68.50
28763;DHT22;15918;51.270;6.522;2024-03-22T09:08:53;15.40;68.40
28763;DHT22;15918;51.270;6.522;2024-03-22T09:11:23;15.50;68.40
28763;DHT22;15918;51.270;6.522;2024-03-22T09:13:51;15.50;68.50
28763;DHT22;15918;51.270;6.522;2024-03-22T09:16:17;15.50;68.30
28763;DHT22;15918;51.270;6.522;2024-03-22T09:18:43;15.50;68.20
28763;DHT22;15918;51.270;6.522;2024-03-22T09:21:08;15.60;68.20
28763;DHT22;15918;51.270;6.522;2024-03-22T09:23:36;15.60;68.20
28763;DHT22;15918;51.270;6.522;2024-03-22T09:26:01;15.60;68.00
28763;DHT22;15918;51.270;6.522;2024-03-22T09:28:27;15.70;68.00
28763;DHT22;15918;51.270;6.522;2024-03-22T09:30:52;15.70;67.60
28763;DHT22;15918;51.270;6.522;2024-03-22T09:33:18;15.70;67.50
28763;DHT22;15918;51.270;6.522;2024-03-22T09:35:44;15.70;67.40
28763;DHT22;15918;51.270;6.522;2024-03-22T09:38:09;15.70;67.20
28763;DHT22;15918;51.270;6.522;2024-03-22T09:40:38;15.70;66.90
28763;DHT22;15918;51.270;6.522;2024-03-22T09:43:06;15.80;66.70
28763;DHT22;15918;51.270;6.522;2024-03-22T09:45:33;15.80;66.30
28763;DHT22;15918;51.270;6.522;2024-03-22T09:47:59;15.80;66.10
28763;DHT22;15918;51.270;6.522;2024-03-22T09:50:25;15.80;65.90
28763;DHT22;15918;51.270;6.522;2024-03-22T09:52:56;15.80;65.60
28763;DHT22;15918;51.270;6.522;2024-03-22T09:55:23;15.90;65.30
28763;DHT22;15918;51.270;6.522;2024-03-22T09:57:49;15.90;65.30
28763;DHT22;15918;51.270;6.522;2024-03-22T10:00:19;15.90;65.30
28763;DHT22;15918;51.270;6.522;2024-03-22T10:02:49;15.90;65.30
28763;DHT22;15918;51.270;6.522;2024-03-22T10:05:15;15.90;65.00
28763;DHT22;15918;51.270;6.522;2024-03-22T10:07:43;15.90;64.70
28763;DHT22;15918;51.270;6.522;2024-03-22T10:10:09;15.90;64.50
28763;DHT22;15918;51.270;6.522;2024-03-22T10:12:35;15.90;64.20
28763;DHT22;15918;51.270;6.522;2024-03-22T10:15:01;16.00;64.00
28763;DHT22;15918;51.270;6.522;2024-03-22T10:17:27;16.00;64.20
28763;DHT22;15918;51.270;6.522;2024-03-22T10:19:53;16.00;64.10
28763;DHT22;15918;51.270;6.522;2024-03-22T10:22:19;16.00;64.20
28763;DHT22;15918;51.270;6.522;2024-03-22T10:24:45;16.00;64.10
28763;DHT22;15918;51.270;6.522;2024-03-22T10:27:11;16.00;64.00
28763;DHT22;15918;51.270;6.522;2024-03-22T10:29:37;16.00;64.00
28763;DHT22;15918;51.270;6.522;2024-03-22T10:32:03;16.00;64.10
28763;DHT22;15918;51.270;6.522;2024-03-22T10:34:28;16.00;64.10
28763;DHT22;15918;51.270;6.522;2024-03-22T10:37:00;16.00;64.10
28763;DHT22;15918;51.270;6.522;2024-03-22T10:39:26;16.00;63.90
28763;DHT22;15918;51.270;6.522;2024-03-22T10:41:52;16.10;64.20
28763;DHT22;15918;51.270;6.522;2024-03-22T10:44:18;16.00;64.20
28763;DHT22;15918;51.270;6.522;2024-03-22T10:46:48;16.00;64.20
28763;DHT22;15918;51.270;6.522;2024-03-22T10:49:18;16.10;64.40
28763;DHT22;15918;51.270;6.522;2024-03-22T10:51:49;16.10;64.40
28763;DHT22;15918;51.270;6.522;2024-03-22T10:54:20;16.10;64.30
28763;DHT22;15918;51.270;6.522;2024-03-22T10:56:46;16.10;64.10
28763;DHT22;15918;51.270;6.522;2024-03-22T10:59:14;16.10;63.90
28763;DHT22;15918;51.270;6.522;2024-03-22T11:01:45;16.10;63.80
28763;DHT22;15918;51.270;6.522;2024-03-22T11:04:11;16.10;63.60
28763;DHT22;15918;51.270;6.522;2024-03-22T11:06:37;16.10;63.70
28763;DHT22;15918;51.270;6.522;2024-03-22T11:09:03;16.20;63.80
28763;DHT22;15918;51.270;6.522;2024-03-22T11:11:32;16.10;63.80
28763;DHT22;15918;51.270;6.522;2024-03-22T11:14:03;16.20;64.80
28763;DHT22;15918;51.270;6.522;2024-03-22T11:16:28;16.20;64.20
28763;DHT22;15918;51.270;6.522;2024-03-22T11:18:55;16.20;64.00
28763;DHT22;15918;51.270;6.522;2024-03-22T11:21:20;16.30;64.10
28763;DHT22;15918;51.270;6.522;2024-03-22T11:23:46;16.20;64.00
28763;DHT22;15918;51.270;6.522;2024-03-22T11:26:12;16.20;63.90
28763;DHT22;15918;51.270;6.522;2024-03-22T11:28:39;16.20;64.00
28763;DHT22;15918;51.270;6.522;2024-03-22T11:31:05;16.30;64.00
28763;DHT22;15918;51.270;6.522;2024-03-22T11:33:31;16.30;64.00
28763;DHT22;15918;51.270;6.522;2024-03-22T11:35:59;16.30;64.00
28763;DHT22;15918;51.270;6.522;2024-03-22T11:38:26;16.30;64.00
28763;DHT22;15918;51.270;6.522;2024-03-22T11:40:53;16.30;64.00
28763;DHT22;15918;51.270;6.522;2024-03-22T11:43:20;16.30;63.90
28763;DHT22;15918;51.270;6.522;2024-03-22T11:45:46;16.30;63.90
28763;DHT22;15918;51.270;6.522;2024-03-22T11:48:12;16.30;64.00
28763;DHT22;15918;51.270;6.522;2024-03-22T11:50:38;16.30;64.20
28763;DHT22;15918;51.270;6.522;2024-03-22T11:53:07;16.30;64.40
28763;DHT22;15918;51.270;6.522;2024-03-22T11:55:35;16.40;64.40
28763;DHT22;15918;51.270;6.522;2024-03-22T11:58:01;16.40;64.50
28763;DHT22;15918;51.270;6.522;2024-03-22T12:00:27;16.40;64.60
28763;DHT22;15918;51.270;6.522;2024-03-22T12:02:53;16.30;64.70
28763;DHT22;15918;51.270;6.522;2024-03-22T12:05:20;16.30;64.70
28763;DHT22;15918;51.270;6.522;2024-03-22T12:07:46;16.40;64.60
28763;DHT22;15918;51.270;6.522;2024-03-22T12:10:12;16.40;64.60
28763;DHT22;15918;51.270;6.522;2024-03-22T12:12:37;16.40;64.60
28763;DHT22;15918;51.270;6.522;2024-03-22T12:15:04;16.40;64.60
28763;DHT22;15918;51.270;6.522;2024-03-22T12:17:30;16.40;64.30
28763;DHT22;15918;51.270;6.522;2024-03-22T12:19:55;16.40;64.40
28763;DHT22;15918;51.270;6.522;2024-03-22T12:22:22;16.40;64.40
28763;DHT22;15918;51.270;6.522;2024-03-22T12:24:48;16.40;64.40
28763;DHT22;15918;51.270;6.522;2024-03-22T12:27:13;16.40;64.40
28763;DHT22;15918;51.270;6.522;2024-03-22T12:29:39;16.30;64.40
28763;DHT22;15918;51.270;6.522;2024-03-22T12:32:05;16.30;64.50
28763;DHT22;15918;51.270;6.522;2024-03-22T12:34:32;16.30;64.40
28763;DHT22;15918;51.270;6.522;2024-03-22T12:36:59;16.30;64.50
28763;DHT22;15918;51.270;6.522;2024-03-22T12:39:24;16.40;64.60
28763;DHT22;15918;51.270;6.522;2024-03-22T12:41:50;16.30;64.50
28763;DHT22;15918;51.270;6.522;2024-03-22T12:44:16;16.30;64.60
28763;DHT22;15918;51.270;6.522;2024-03-22T12:46:41;16.30;64.60
28763;DHT22;15918;51.270;6.522;2024-03-22T12:49:11;16.40;64.80
28763;DHT22;15918;51.270;6.522;2024-03-22T12:51:37;16.40;64.80
28763;DHT22;15918;51.270;6.522;2024-03-22T12:54:04;16.30;64.70
28763;DHT22;15918;51.270;6.522;2024-03-22T12:56:32;16.30;64.70
28763;DHT22;15918;51.270;6.522;2024-03-22T12:58:59;16.30;64.60
28763;DHT22;15918;51.270;6.522;2024-03-22T13:01:24;16.30;64.50
28763;DHT22;15918;51.270;6.522;2024-03-22T13:03:50;16.30;64.50
28763;DHT22;15918;51.270;6.522;2024-03-22T13:06:15;16.40;64.70
28763;DHT22;15918;51.270;6.522;2024-03-22T13:08:41;16.30;64.60
28763;DHT22;15918;51.270;6.522;2024-03-22T13:11:07;16.30;64.50
28763;DHT22;15918;51.270;6.522;2024-03-22T13:13:37;16.30;64.50
28763;DHT22;15918;51.270;6.522;2024-03-22T13:16:04;16.30;64.50
28763;DHT22;15918;51.270;6.522;2024-03-22T13:18:29;16.30;64.50
28763;DHT22;15918;51.270;6.522;2024-03-22T13:20:55;16.30;64.50
28763;DHT22;15918;51.270;6.522;2024-03-22T13:23:21;16.30;64.50
28763;DHT22;15918;51.270;6.522;2024-03-22T13:25:46;16.30;64.50
28763;DHT22;15918;51.270;6.522;2024-03-22T13:28:12;16.30;64.60
28763;DHT22;15918;51.270;6.522;2024-03-22T13:30:38;16.30;64.60
28763;DHT22;15918;51.270;6.522;2024-03-22T13:33:04;16.30;64.60
28763;DHT22;15918;51.270;6.522;2024-03-22T13:35:30;16.30;64.60
28763;DHT22;15918;51.270;6.522;2024-03-22T13:37:56;16.30;64.60
28763;DHT22;15918;51.270;6.522;2024-03-22T13:40:21;16.40;64.70
28763;DHT22;15918;51.270;6.522;2024-03-22T13:42:47;16.30;64.60
28763;DHT22;15918;51.270;6.522;2024-03-22T13:45:13;16.30;64.70
28763;DHT22;15918;51.270;6.522;2024-03-22T13:47:38;16.30;64.60
28763;DHT22;15918;51.270;6.522;2024-03-22T13:50:07;16.30;64.60
28763;DHT22;15918;51.270;6.522;2024-03-22T13:52:35;16.30;64.70
28763;DHT22;15918;51.270;6.522;2024-03-22T13:55:02;16.20;64.70
28763;DHT22;15918;51.270;6.522;2024-03-22T13:57:27;16.30;64.50
28763;DHT22;15918;51.270;6.522;2024-03-22T13:59:53;16.30;64.60
28763;DHT22;15918;51.270;6.522;2024-03-22T14:02:19;16.20;64.70
28763;DHT22;15918;51.270;6.522;2024-03-22T14:04:45;16.20;64.70
28763;DHT22;15918;51.270;6.522;2024-03-22T14:07:11;16.20;64.70
28763;DHT22;15918;51.270;6.522;2024-03-22T14:09:36;16.20;64.70
28763;DHT22;15918;51.270;6.522;2024-03-22T14:12:02;16.20;64.60
28763;DHT22;15918;51.270;6.522;2024-03-22T14:14:28;16.20;64.70
28763;DHT22;15918;51.270;6.522;2024-03-22T14:16:54;16.20;64.80
28763;DHT22;15918;51.270;6.522;2024-03-22T14:19:19;16.20;64.80
28763;DHT22;15918;51.270;6.522;2024-03-22T14:21:46;16.20;64.60
28763;DHT22;15918;51.270;6.522;2024-03-22T14:24:15;16.20;64.60
28763;DHT22;15918;51.270;6.522;2024-03-22T14:26:41;16.20;64.50
28763;DHT22;15918;51.270;6.522;2024-03-22T14:29:14;16.20;64.50
28763;DHT22;15918;51.270;6.522;2024-03-22T14:31:39;16.20;64.40
28763;DHT22;15918;51.270;6.522;2024-03-22T14:34:08;16.10;64.70
28763;DHT22;15918;51.270;6.522;2024-03-22T14:36:34;16.20;64.70
28763;DHT22;15918;51.270;6.522;2024-03-22T14:39:00;16.20;64.80
28763;DHT22;15918;51.270;6.522;2024-03-22T14:41:27;16.10;64.70
28763;DHT22;15918;51.270;6.522;2024-03-22T14:43:52;16.10;64.70
28763;DHT22;15918;51.270;6.522;2024-03-22T14:46:19;16.10;64.80
28763;DHT22;15918;51.270;6.522;2024-03-22T14:48:50;16.10;64.90
28763;DHT22;15918;51.270;6.522;2024-03-22T14:51:15;16.10;64.90
28763;DHT22;15918;51.270;6.522;2024-03-22T14:53:41;16.10;64.90
28763;DHT22;15918;51.270;6.522;2024-03-22T14:56:06;16.10;65.00
28763;DHT22;15918;51.270;6.522;2024-03-22T14:58:34;16.10;65.00
28763;DHT22;15918;51.270;6.522;2024-03-22T15:01:01;16.10;65.20
28763;DHT22;15918;51.270;6.522;2024-03-22T15:03:27;16.00;65.10
28763;DHT22;15918;51.270;6.522;2024-03-22T15:05:57;16.00;65.10
28763;DHT22;15918;51.270;6.522;2024-03-22T15:08:25;16.00;65.10
28763;DHT22;15918;51.270;6.522;2024-03-22T15:10:51;16.00;65.20
28763;DHT22;15918;51.270;6.522;2024-03-22T15:13:17;16.00;66.00
28763;DHT22;15918;51.270;6.522;2024-03-22T15:15:54;16.00;65.30
28763;DHT22;15918;51.270;6.522;2024-03-22T15:18:20;16.10;65.30
28763;DHT22;15918;51.270;6.522;2024-03-22T15:20:46;16.00;65.50
28763;DHT22;15918;51.270;6.522;2024-03-22T15:23:12;16.00;65.70